TFS weather

Tenerife South Airport
Tenerife Island, Canary Islands, Spain

Public forecast

Using degrees Celsius for public forecast. Weather courtesy of forecast.io.

Current aviation weather report (METAR) for Tenerife South Airport

Retrieved 2019/10/22 12:30 UTC (0 seconds ago):

GCTS 221230Z 08019KT 9999 FEW040 BKN060 23/12 Q1019 NOSIG

Aviation forecast (TAF) for Tenerife South Airport

Retrieved 2019/10/22 09:27 UTC (3 hours ago):

TAF GCTS 220800Z 2209/2309 08018KT 9999 SCT035 TX24/2214Z TN17/2305Z PROB30 TEMPO 2209/2210 05008KT BECMG 2220/2222 07008KT